Time;durP1;ratioP1;P1;durP2;ratioP2;P2;SDS_P1;SDS_P2;PMS_P1;PMS_P2;Temp;Humidity;BMP_temperature;BMP_pressure;BME280_temperature;BME280_humidity;BME280_pressure;Samples;Min_cycle;Max_cycle;Signal;HPM_P1;HPM_P2
2021/03/14 00:00:02;;;;;;;;;;;;;;;;;;4972939;28;19934;-67
2021/03/14 00:02:28;;;;;;;;;;;;;;;;;;4969990;28;20080;-65
2021/03/14 00:04:55;;;;;;;;;;;;;;;;;;4975002;28;20057;-66
2021/03/14 00:07:21;;;;;;;;;;;;;;;;;;4973251;28;19930;-67
2021/03/14 00:09:48;;;;;;;;;;;;;;;;;;4974138;28;20017;-67
2021/03/14 00:12:14;;;;;;;;;;;;;;;;;;4974506;28;20016;-67
2021/03/14 00:14:41;;;;;;;;;;;;;;;;;;4971709;28;19933;-67
2021/03/14 00:17:07;;;;;;;;;;;;;;;;;;4974126;28;19926;-66
2021/03/14 00:19:34;;;;;;;;;;;;;;;;;;4974010;28;20353;-67
2021/03/14 00:22:00;;;;;;;;;;;;;;;;;;4973380;28;19973;-67
2021/03/14 00:24:27;;;;;;;;;;;;;;;;;;4965883;28;19994;-67
2021/03/14 00:26:53;;;;;;;;;;;;;;;;;;4973545;28;19927;-67
2021/03/14 00:29:20;;;;;;;;;;;;;;;;;;4969041;28;19977;-67
2021/03/14 00:31:46;;;;;;;;;;;;;;;;;;4974285;28;19993;-67
2021/03/14 00:34:13;;;;;;;;;;;;;;;;;;4972578;28;19969;-67
2021/03/14 00:36:39;;;;;;;;;;;;;;;;;;4962759;28;19965;-67
2021/03/14 00:39:06;;;;;;;;;;;;;;;;;;4966574;28;19926;-67
2021/03/14 00:41:32;;;;;;;;;;;;;;;;;;4973972;28;19969;-68
2021/03/14 00:43:59;;;;;;;;;;;;;;;;;;4968973;28;19938;-67
2021/03/14 00:46:25;;;;;;;;;;;;;;;;;;4972116;28;20010;-68
2021/03/14 00:48:52;;;;;;;;;;;;;;;;;;4973423;28;20334;-68
2021/03/14 00:51:18;;;;;;;;;;;;;;;;;;4971543;28;19930;-67
2021/03/14 00:53:45;;;;;;;;;;;;;;;;;;4973783;28;20017;-67
2021/03/14 00:56:11;;;;;;;;;;;;;;;;;;4969862;28;20362;-67
2021/03/14 00:58:38;;;;;;;;;;;;;;;;;;4971694;28;20013;-67
2021/03/14 01:01:04;;;;;;;;;;;;;;;;;;4962757;28;20318;-67
2021/03/14 01:03:31;;;;;;;;;;;;;;;;;;4965850;28;20099;-67
2021/03/14 01:05:57;;;;;;;;;;;;;;;;;;4972794;28;20021;-67
2021/03/14 01:08:24;;;;;;;;;;;;;;;;;;4974555;28;19926;-65
2021/03/14 01:10:51;;;;;;;;;;;;;;;;;;4975298;28;20007;-67
2021/03/14 01:13:17;;;;;;;;;;;;;;;;;;4977783;28;20032;-65
2021/03/14 01:15:44;;;;;;;;;;;;;;;;;;4981882;28;20505;-66
2021/03/14 01:18:10;;;;;;;;;;;;;;;;;;4987477;28;19934;-66
2021/03/14 01:20:37;;;;;;;;;;;;;;;;;;4986366;28;19933;-66
2021/03/14 01:23:03;;;;;;;;;;;;;;;;;;4980208;28;20268;-66
2021/03/14 01:25:30;;;;;;;;;;;;;;;;;;4968801;28;19926;-66
2021/03/14 01:27:56;;;;;;;;;;;;;;;;;;4978334;28;19926;-66
2021/03/14 01:30:23;;;;;;;;;;;;;;;;;;4979168;28;19965;-66
2021/03/14 01:32:49;;;;;;;;;;;;;;;;;;4966024;28;19933;-68
2021/03/14 01:35:16;;;;;;;;;;;;;;;;;;4973415;28;19932;-66
2021/03/14 01:37:42;;;;;;;;;;;;;;;;;;4973419;28;19938;-66
2021/03/14 01:40:09;;;;;;;;;;;;;;;;;;4978779;28;20024;-66
2021/03/14 01:42:35;;;;;;;;;;;;;;;;;;4977620;28;20414;-66
2021/03/14 01:45:02;;;;;;;;;;;;;;;;;;4976216;28;20287;-65
2021/03/14 01:47:28;;;;;;;;;;;;;;;;;;4978414;28;19936;-65
2021/03/14 01:49:55;;;;;;;;;;;;;;;;;;4981889;28;19933;-66
2021/03/14 01:52:21;;;;;;;;;;;;;;;;;;4986194;28;19926;-66
2021/03/14 01:54:48;;;;;;;;;;;;;;;;;;4971996;28;19927;-68
2021/03/14 01:57:15;;;;;;;;;;;;;;;;;;4974099;28;20100;-66
2021/03/14 01:59:41;;;;;;;;;;;;;;;;;;4975550;28;20017;-66
2021/03/14 02:02:08;;;;;;;;;;;;;;;;;;4973760;28;20020;-66
2021/03/14 02:04:34;;;;;;;;;;;;;;;;;;4979401;28;19981;-66
2021/03/14 02:07:01;;;;;;;;;;;;;;;;;;4977181;28;19978;-67
2021/03/14 02:09:28;;;;;;;;;;;;;;;;;;4972771;28;20012;-67
2021/03/14 02:11:54;;;;;;;;;;;;;;;;;;4978336;28;20366;-68
2021/03/14 02:14:21;;;;;;;;;;;;;;;;;;4971208;28;20004;-65
2021/03/14 02:16:47;;;;;;;;;;;;;;;;;;4978883;28;20111;-65
2021/03/14 02:19:14;;;;;;;;;;;;;;;;;;4974984;28;20013;-67
2021/03/14 02:21:40;;;;;;;;;;;;;;;;;;4977595;28;20017;-66
2021/03/14 02:24:06;;;;;;;;;;;;;;;;;;4977687;28;20293;-66
2021/03/14 02:26:33;;;;;;;;;;;;;;;;;;4972113;28;19926;-66
2021/03/14 02:29:00;;;;;;;;;;;;;;;;;;4967850;28;20012;-65
2021/03/14 02:31:26;;;;;;;;;;;;;;;;;;4974563;28;19965;-65
2021/03/14 02:33:53;;;;;;;;;;;;;;;;;;4976094;28;20292;-65
2021/03/14 02:36:19;;;;;;;;;;;;;;;;;;4973695;28;20366;-65
2021/03/14 02:38:46;;;;;;;;;;;;;;;;;;4971502;28;19965;-66
2021/03/14 02:41:12;;;;;;;;;;;;;;;;;;4972868;28;19986;-67
2021/03/14 02:43:39;;;;;;;;;;;;;;;;;;4971282;28;20013;-66
2021/03/14 02:46:05;;;;;;;;;;;;;;;;;;4968492;28;20313;-67
2021/03/14 02:48:32;;;;;;;;;;;;;;;;;;4974638;28;19926;-66
2021/03/14 02:50:58;;;;;;;;;;;;;;;;;;4965651;28;20147;-66
2021/03/14 02:53:25;;;;;;;;;;;;;;;;;;4968856;28;19932;-66
2021/03/14 02:55:51;;;;;;;;;;;;;;;;;;4976893;28;19973;-66
2021/03/14 02:58:18;;;;;;;;;;;;;;;;;;4967959;28;19980;-66
2021/03/14 03:00:44;;;;;;;;;;;;;;;;;;4975646;28;20367;-67
2021/03/14 03:03:11;;;;;;;;;;;;;;;;;;4975899;28;20257;-66
2021/03/14 03:05:37;;;;;;;;;;;;;;;;;;4968096;28;20017;-66
2021/03/14 03:08:04;;;;;;;;;;;;;;;;;;4976417;28;19949;-66
2021/03/14 03:10:30;;;;;;;;;;;;;;;;;;4967924;28;20429;-66
2021/03/14 03:12:57;;;;;;;;;;;;;;;;;;4974443;28;19926;-66
2021/03/14 03:15:23;;;;;;;;;;;;;;;;;;4967642;28;19926;-67
2021/03/14 03:17:50;;;;;;;;;;;;;;;;;;4959804;28;19978;-66
2021/03/14 03:20:16;;;;;;;;;;;;;;;;;;4975888;28;20028;-66
2021/03/14 03:22:43;;;;;;;;;;;;;;;;;;4974975;28;19932;-66
2021/03/14 03:25:09;;;;;;;;;;;;;;;;;;4975497;28;19926;-66
2021/03/14 03:27:36;;;;;;;;;;;;;;;;;;4974902;28;19926;-66
2021/03/14 03:30:02;;;;;;;;;;;;;;;;;;4974031;28;19965;-67
2021/03/14 03:32:29;;;;;;;;;;;;;;;;;;4972432;28;19930;-66
2021/03/14 03:34:55;;;;;;;;;;;;;;;;;;4975964;28;20276;-67
2021/03/14 03:37:22;;;;;;;;;;;;;;;;;;4970630;28;19968;-67
2021/03/14 03:39:48;;;;;;;;;;;;;;;;;;4973424;28;19936;-67
2021/03/14 03:42:15;;;;;;;;;;;;;;;;;;4977995;28;19926;-66
2021/03/14 03:44:41;;;;;;;;;;;;;;;;;;4969641;28;20429;-67
2021/03/14 03:47:08;;;;;;;;;;;;;;;;;;4970675;28;20024;-66
2021/03/14 03:49:34;;;;;;;;;;;;;;;;;;4972395;28;20017;-67
2021/03/14 03:52:01;;;;;;;;;;;;;;;;;;4968052;28;20130;-67
2021/03/14 03:54:27;;;;;;;;;;;;;;;;;;4967871;28;19937;-68
2021/03/14 03:56:54;;;;;;;;;;;;;;;;;;4971888;28;19934;-68
2021/03/14 03:59:21;;;;;;;;;;;;;;;;;;4969870;28;19972;-68
2021/03/14 04:01:47;;;;;;;;;;;;;;;;;;4971013;28;20026;-67
2021/03/14 04:04:14;;;;;;;;;;;;;;;;;;4969281;28;20028;-66
2021/03/14 04:06:40;;;;;;;;;;;;;;;;;;4968999;28;20016;-67
2021/03/14 04:09:07;;;;;;;;;;;;;;;;;;4968776;28;19933;-67
2021/03/14 04:11:33;;;;;;;;;;;;;;;;;;4970102;28;20020;-67
2021/03/14 04:14:00;;;;;;;;;;;;;;;;;;4970378;28;20291;-66
2021/03/14 04:16:26;;;;;;;;;;;;;;;;;;4962052;28;20372;-66
2021/03/14 04:18:53;;;;;;;;;;;;;;;;;;4968435;28;19927;-67
2021/03/14 04:21:19;;;;;;;;;;;;;;;;;;4968931;28;19930;-66
2021/03/14 04:23:46;;;;;;;;;;;;;;;;;;4971105;28;19957;-67
2021/03/14 04:26:12;;;;;;;;;;;;;;;;;;4969071;28;20017;-66
2021/03/14 04:28:39;;;;;;;;;;;;;;;;;;4969798;28;19930;-67
2021/03/14 04:31:05;;;;;;;;;;;;;;;;;;4967590;28;19926;-66
2021/03/14 04:33:32;;;;;;;;;;;;;;;;;;4970546;28;19979;-67
2021/03/14 04:35:59;;;;;;;;;;;;;;;;;;4967992;28;20016;-67
2021/03/14 04:38:26;;;;;;;;;;;;;;;;;;4960294;28;19931;-66
2021/03/14 04:40:52;;;;;;;;;;;;;;;;;;4968022;28;19933;-67
2021/03/14 04:43:19;;;;;;;;;;;;;;;;;;4965356;28;19938;-66
2021/03/14 04:45:45;;;;;;;;;;;;;;;;;;4969665;28;20033;-67
2021/03/14 04:48:12;;;;;;;;;;;;;;;;;;4973127;28;19984;-67
2021/03/14 04:50:38;;;;;;;;;;;;;;;;;;4969920;28;19930;-67
2021/03/14 04:53:05;;;;;;;;;;;;;;;;;;4970235;28;20020;-66
2021/03/14 04:55:31;;;;;;;;;;;;;;;;;;4972306;28;20310;-66
2021/03/14 04:57:58;;;;;;;;;;;;;;;;;;4972793;28;20008;-67
2021/03/14 05:00:24;;;;;;;;;;;;;;;;;;4972355;28;19926;-66
2021/03/14 05:02:51;;;;;;;;;;;;;;;;;;4972443;28;19934;-66
2021/03/14 05:05:17;;;;;;;;;;;;;;;;;;4974015;28;19973;-67
2021/03/14 05:07:44;;;;;;;;;;;;;;;;;;4970467;28;20009;-66
2021/03/14 05:10:10;;;;;;;;;;;;;;;;;;4968091;28;19954;-70
2021/03/14 05:12:37;;;;;;;;;;;;;;;;;;4965043;28;19945;-67
2021/03/14 05:15:03;;;;;;;;;;;;;;;;;;4968231;28;19932;-66
2021/03/14 05:17:30;;;;;;;;;;;;;;;;;;4966593;28;20387;-67
2021/03/14 05:19:56;;;;;;;;;;;;;;;;;;4971279;28;19934;-66
2021/03/14 05:22:23;;;;;;;;;;;;;;;;;;4966877;28;20012;-67
2021/03/14 05:24:49;;;;;;;;;;;;;;;;;;4968918;28;20368;-67
2021/03/14 05:27:16;;;;;;;;;;;;;;;;;;4969595;28;19973;-67
2021/03/14 05:29:45;;;;;;;;;;;;;;;;;;4973544;28;19932;-67
2021/03/14 05:32:11;;;;;;;;;;;;;;;;;;4971669;28;19930;-67
2021/03/14 05:34:38;;;;;;;;;;;;;;;;;;4967856;28;20386;-67
2021/03/14 05:37:04;;;;;;;;;;;;;;;;;;4971097;28;20029;-67
2021/03/14 05:39:31;;;;;;;;;;;;;;;;;;4976080;28;20028;-67
2021/03/14 05:41:57;;;;;;;;;;;;;;;;;;4974709;28;19933;-66
2021/03/14 05:44:24;;;;;;;;;;;;;;;;;;4974474;28;20017;-67
2021/03/14 05:46:50;;;;;;;;;;;;;;;;;;4974442;28;19926;-68
2021/03/14 05:49:17;;;;;;;;;;;;;;;;;;4974221;28;20434;-65
2021/03/14 05:51:43;;;;;;;;;;;;;;;;;;4971118;28;19972;-66
2021/03/14 05:54:10;;;;;;;;;;;;;;;;;;4984848;28;19910;-65
2021/03/14 05:56:36;;;;;;;;;;;;;;;;;;4987485;28;19994;-67
2021/03/14 05:59:03;;;;;;;;;;;;;;;;;;4988065;28;20261;-65
2021/03/14 06:01:30;;;;;;;;;;;;;;;;;;4974407;28;20389;-67
2021/03/14 06:03:56;;;;;;;;;;;;;;;;;;4973311;28;20450;-68
2021/03/14 06:06:23;;;;;;;;;;;;;;;;;;4985880;28;19934;-66
2021/03/14 06:08:49;;;;;;;;;;;;;;;;;;4978457;28;19965;-67
2021/03/14 06:11:16;;;;;;;;;;;;;;;;;;4971085;28;19926;-66
2021/03/14 06:13:42;;;;;;;;;;;;;;;;;;4972254;28;20014;-66
2021/03/14 06:16:09;;;;;;;;;;;;;;;;;;4976278;28;20022;-65
2021/03/14 06:18:35;;;;;;;;;;;;;;;;;;4982027;28;20481;-67
2021/03/14 06:21:02;;;;;;;;;;;;;;;;;;4975295;28;19926;-67
2021/03/14 06:23:28;;;;;;;;;;;;;;;;;;4973448;28;20067;-66
2021/03/14 06:25:55;;;;;;;;;;;;;;;;;;4974603;28;19926;-67
2021/03/14 06:28:21;;;;;;;;;;;;;;;;;;4972926;28;20011;-67
2021/03/14 06:30:48;;;;;;;;;;;;;;;;;;4972877;28;20467;-66
2021/03/14 06:33:15;;;;;;;;;;;;;;;;;;4971908;28;19936;-66
2021/03/14 06:35:42;;;;;;;;;;;;;;;;;;4971481;28;19980;-67
2021/03/14 06:38:08;;;;;;;;;;;;;;;;;;4973923;28;19991;-66
2021/03/14 06:40:35;;;;;;;;;;;;;;;;;;4973297;28;19926;-66
2021/03/14 06:43:01;;;;;;;;;;;;;;;;;;4971528;28;19973;-65
2021/03/14 06:45:28;;;;;;;;;;;;;;;;;;4965042;28;20033;-65
2021/03/14 06:47:54;;;;;;;;;;;;;;;;;;4966572;28;19973;-65
2021/03/14 06:50:21;;;;;;;;;;;;;;;;;;4972305;28;20004;-65
2021/03/14 06:52:47;;;;;;;;;;;;;;;;;;4975439;28;19965;-65
2021/03/14 06:55:14;;;;;;;;;;;;;;;;;;4981178;28;19965;-65
2021/03/14 06:57:40;;;;;;;;;;;;;;;;;;4976985;28;19930;-69
2021/03/14 07:00:07;;;;;;;;;;;;;;;;;;4971488;28;19927;-67
2021/03/14 07:02:33;;;;;;;;;;;;;;;;;;4969056;28;19972;-66
2021/03/14 07:05:00;;;;;;;;;;;;;;;;;;4968241;28;19969;-67
2021/03/14 07:07:27;;;;;;;;;;;;;;;;;;4967270;28;19973;-69
2021/03/14 07:09:54;;;;;;;;;;;;;;;;;;4972165;28;19926;-66
2021/03/14 07:12:20;;;;;;;;;;;;;;;;;;4970455;28;20029;-67
2021/03/14 07:14:47;;;;;;;;;;;;;;;;;;4966846;28;19930;-67
2021/03/14 07:17:13;;;;;;;;;;;;;;;;;;4974080;28;20403;-67
2021/03/14 07:19:40;;;;;;;;;;;;;;;;;;4983836;28;19938;-66
2021/03/14 07:22:06;;;;;;;;;;;;;;;;;;4981113;28;20029;-67
2021/03/14 07:24:33;;;;;;;;;;;;;;;;;;4981343;28;19962;-67
2021/03/14 07:26:59;;;;;;;;;;;;;;;;;;4980384;28;20056;-67
2021/03/14 07:29:26;;;;;;;;;;;;;;;;;;4977355;28;19961;-67
2021/03/14 07:31:52;;;;;;;;;;;;;;;;;;4983408;28;19926;-67
2021/03/14 07:34:19;;;;;;;;;;;;;;;;;;4981362;28;19962;-67
2021/03/14 07:36:45;;;;;;;;;;;;;;;;;;4978392;28;20005;-67
2021/03/14 07:39:12;;;;;;;;;;;;;;;;;;4968915;28;19925;-68
2021/03/14 07:41:38;;;;;;;;;;;;;;;;;;4971253;28;19999;-68
2021/03/14 07:44:05;;;;;;;;;;;;;;;;;;4964356;28;20291;-67
2021/03/14 07:46:31;;;;;;;;;;;;;;;;;;4967948;28;20020;-67
2021/03/14 07:48:58;;;;;;;;;;;;;;;;;;4971019;28;19930;-67
2021/03/14 07:51:24;;;;;;;;;;;;;;;;;;4969802;28;19933;-67
2021/03/14 07:53:51;;;;;;;;;;;;;;;;;;4963448;28;19926;-68
2021/03/14 07:56:17;;;;;;;;;;;;;;;;;;4970062;28;19933;-68
2021/03/14 07:58:44;;;;;;;;;;;;;;;;;;4962969;28;19933;-67
2021/03/14 08:01:10;;;;;;;;;;;;;;;;;;4964744;28;20032;-68
2021/03/14 08:03:37;;;;;;;;;;;;;;;;;;4971038;28;19984;-67
2021/03/14 08:06:03;;;;;;;;;;;;;;;;;;4970796;28;19933;-66
2021/03/14 08:08:30;;;;;;;;;;;;;;;;;;4969471;28;20021;-68
2021/03/14 08:10:56;;;;;;;;;;;;;;;;;;4966595;28;20453;-67
2021/03/14 08:13:23;;;;;;;;;;;;;;;;;;4963010;28;19973;-67
2021/03/14 08:15:49;;;;;;;;;;;;;;;;;;4968077;28;19930;-68
2021/03/14 08:18:16;;;;;;;;;;;;;;;;;;4969252;28;20303;-68
2021/03/14 08:20:43;;;;;;;;;;;;;;;;;;4965660;28;20021;-68
2021/03/14 08:23:09;;;;;;;;;;;;;;;;;;4965219;28;19933;-66
2021/03/14 08:25:36;;;;;;;;;;;;;;;;;;4970321;28;19926;-65
2021/03/14 08:28:02;;;;;;;;;;;;;;;;;;4971205;28;19927;-66
2021/03/14 08:30:29;;;;;;;;;;;;;;;;;;4961220;28;20395;-66
2021/03/14 08:32:55;;;;;;;;;;;;;;;;;;4961964;28;19933;-66
2021/03/14 08:35:22;;;;;;;;;;;;;;;;;;4964906;28;20290;-67
2021/03/14 08:37:48;;;;;;;;;;;;;;;;;;4964715;28;20294;-66
2021/03/14 08:40:15;;;;;;;;;;;;;;;;;;4965623;28;19933;-68
2021/03/14 08:42:41;;;;;;;;;;;;;;;;;;4964987;28;20017;-67
2021/03/14 08:45:08;;;;;;;;;;;;;;;;;;4969001;28;20032;-68
2021/03/14 08:47:34;;;;;;;;;;;;;;;;;;4970035;28;20009;-69
2021/03/14 08:50:01;;;;;;;;;;;;;;;;;;4968199;28;19977;-69
2021/03/14 08:52:27;;;;;;;;;;;;;;;;;;4965482;28;19985;-68
2021/03/14 08:54:54;;;;;;;;;;;;;;;;;;4967798;28;20081;-66
2021/03/14 08:57:20;;;;;;;;;;;;;;;;;;4971057;28;19930;-67
2021/03/14 08:59:47;;;;;;;;;;;;;;;;;;4967109;28;20409;-67
2021/03/14 09:02:13;;;;;;;;;;;;;;;;;;4968870;28;19926;-67
2021/03/14 09:04:40;;;;;;;;;;;;;;;;;;4964333;28;19950;-68
2021/03/14 09:07:06;;;;;;;;;;;;;;;;;;4965077;28;19982;-67
2021/03/14 09:09:33;;;;;;;;;;;;;;;;;;4971506;28;20029;-68
2021/03/14 09:11:59;;;;;;;;;;;;;;;;;;4976496;28;19930;-68
2021/03/14 09:14:26;;;;;;;;;;;;;;;;;;4970043;28;19934;-69
2021/03/14 09:16:53;;;;;;;;;;;;;;;;;;4972176;28;19930;-69
2021/03/14 09:19:19;;;;;;;;;;;;;;;;;;4965868;28;20013;-68
2021/03/14 09:21:45;;;;;;;;;;;;;;;;;;4961162;28;20013;-69
2021/03/14 09:24:12;;;;;;;;;;;;;;;;;;4975158;28;20408;-69
2021/03/14 09:26:38;;;;;;;;;;;;;;;;;;4976527;28;19966;-69
2021/03/14 09:29:05;;;;;;;;;;;;;;;;;;4973082;28;20355;-69
2021/03/14 09:31:31;;;;;;;;;;;;;;;;;;4975280;28;19945;-69
2021/03/14 09:33:58;;;;;;;;;;;;;;;;;;4980682;28;19980;-69
2021/03/14 09:36:24;;;;;;;;;;;;;;;;;;4978649;28;19980;-69
2021/03/14 09:38:51;;;;;;;;;;;;;;;;;;4982262;28;19926;-69
2021/03/14 09:41:17;;;;;;;;;;;;;;;;;;4975838;28;20387;-69
2021/03/14 09:43:44;;;;;;;;;;;;;;;;;;4976736;28;19949;-69
2021/03/14 09:48:39;;;;;;;;;;;;;;;;;;4972208;28;19954;-68
2021/03/14 09:51:05;;;;;;;;;;;;;;;;;;4972356;28;19932;-68
2021/03/14 09:53:32;;;;;;;;;;;;;;;;;;4972285;28;19930;-68
2021/03/14 09:55:58;;;;;;;;;;;;;;;;;;4972545;28;20020;-68
2021/03/14 09:58:25;;;;;;;;;;;;;;;;;;4960930;28;20275;-67
2021/03/14 10:00:51;;;;;;;;;;;;;;;;;;4972020;28;20155;-68
2021/03/14 10:03:18;;;;;;;;;;;;;;;;;;4972395;28;20069;-68
2021/03/14 10:05:44;;;;;;;;;;;;;;;;;;4971162;28;20289;-67
2021/03/14 10:08:11;;;;;;;;;;;;;;;;;;4966710;28;20032;-67
2021/03/14 10:10:37;;;;;;;;;;;;;;;;;;4975023;28;19966;-68
2021/03/14 10:13:04;;;;;;;;;;;;;;;;;;4979160;28;19972;-68
2021/03/14 10:15:30;;;;;;;;;;;;;;;;;;4972891;28;20280;-68
2021/03/14 10:17:57;;;;;;;;;;;;;;;;;;4976950;28;20020;-68
2021/03/14 10:20:23;;;;;;;;;;;;;;;;;;4971671;28;19929;-67
2021/03/14 10:22:50;;;;;;;;;;;;;;;;;;4974106;28;20003;-68
2021/03/14 10:25:16;;;;;;;;;;;;;;;;;;4971911;28;20457;-67
2021/03/14 10:27:43;;;;;;;;;;;;;;;;;;4972817;28;19945;-68
2021/03/14 10:30:09;;;;;;;;;;;;;;;;;;4972361;28;19926;-68
2021/03/14 10:32:36;;;;;;;;;;;;;;;;;;4971783;28;19953;-68
2021/03/14 10:35:03;;;;;;;;;;;;;;;;;;4973496;28;19982;-67
2021/03/14 10:37:30;;;;;;;;;;;;;;;;;;4973387;28;19926;-68
2021/03/14 10:39:56;;;;;;;;;;;;;;;;;;4971339;28;19926;-68
2021/03/14 10:42:23;;;;;;;;;;;;;;;;;;4970493;28;20200;-67
2021/03/14 10:44:49;;;;;;;;;;;;;;;;;;4970627;28;20025;-68
2021/03/14 10:47:16;;;;;;;;;;;;;;;;;;4967145;28;20014;-68
2021/03/14 10:49:43;;;;;;;;;;;;;;;;;;4972012;28;19927;-68
2021/03/14 10:52:09;;;;;;;;;;;;;;;;;;4979330;28;19977;-67
2021/03/14 10:54:36;;;;;;;;;;;;;;;;;;4974298;28;20021;-68
2021/03/14 10:57:02;;;;;;;;;;;;;;;;;;4969128;28;20374;-68
2021/03/14 10:59:28;;;;;;;;;;;;;;;;;;4979888;28;19930;-68
2021/03/14 11:01:59;;;;;;;;;;;;;;;;;;4972907;28;20061;-68
2021/03/14 11:04:25;;;;;;;;;;;;;;;;;;4970282;28;19926;-68
2021/03/14 11:06:52;;;;;;;;;;;;;;;;;;4977096;28;20000;-68
2021/03/14 11:09:18;;;;;;;;;;;;;;;;;;4970942;28;19937;-67
2021/03/14 11:11:45;;;;;;;;;;;;;;;;;;4970914;28;20001;-68
2021/03/14 11:14:11;;;;;;;;;;;;;;;;;;4969432;28;20389;-68
2021/03/14 11:16:38;;;;;;;;;;;;;;;;;;4971035;28;19973;-68
2021/03/14 11:19:04;;;;;;;;;;;;;;;;;;4971339;28;19932;-68
2021/03/14 11:21:31;;;;;;;;;;;;;;;;;;4971693;28;19985;-68
2021/03/14 11:23:57;;;;;;;;;;;;;;;;;;4971356;28;19989;-68
2021/03/14 11:26:24;;;;;;;;;;;;;;;;;;4970135;28;20410;-68
2021/03/14 11:28:50;;;;;;;;;;;;;;;;;;4971702;28;19926;-68
2021/03/14 11:31:16;;;;;;;;;;;;;;;;;;4964055;28;19927;-68
2021/03/14 11:33:43;;;;;;;;;;;;;;;;;;4974751;28;19973;-68
2021/03/14 11:36:09;;;;;;;;;;;;;;;;;;4969568;28;19926;-67
2021/03/14 11:38:36;;;;;;;;;;;;;;;;;;4964602;28;20356;-68
2021/03/14 11:41:02;;;;;;;;;;;;;;;;;;4969063;28;19930;-68
2021/03/14 11:43:29;;;;;;;;;;;;;;;;;;4969287;28;19926;-68
2021/03/14 11:45:55;;;;;;;;;;;;;;;;;;4970254;28;19934;-69
2021/03/14 11:48:22;;;;;;;;;;;;;;;;;;4969928;28;20009;-69
2021/03/14 11:50:48;;;;;;;;;;;;;;;;;;4968231;28;20396;-68
2021/03/14 11:53:15;;;;;;;;;;;;;;;;;;4966422;28;20388;-68
2021/03/14 11:55:41;;;;;;;;;;;;;;;;;;4967274;28;19926;-68
2021/03/14 11:58:09;;;;;;;;;;;;;;;;;;4968572;28;21563;-68
2021/03/14 12:00:38;;;;;;;;;;;;;;;;;;4966861;28;20363;-68
2021/03/14 12:03:04;;;;;;;;;;;;;;;;;;4969257;28;19953;-68
2021/03/14 12:05:31;;;;;;;;;;;;;;;;;;4969473;28;19980;-68
2021/03/14 12:07:57;;;;;;;;;;;;;;;;;;4969378;28;19949;-68
2021/03/14 12:10:24;;;;;;;;;;;;;;;;;;4964634;28;20011;-68
2021/03/14 12:12:51;;;;;;;;;;;;;;;;;;4969648;28;19973;-68
2021/03/14 12:15:18;;;;;;;;;;;;;;;;;;4970147;28;19934;-68
2021/03/14 12:17:44;;;;;;;;;;;;;;;;;;4969970;28;21178;-68
2021/03/14 12:20:11;;;;;;;;;;;;;;;;;;4970597;28;19977;-68
2021/03/14 12:22:37;;;;;;;;;;;;;;;;;;4968512;28;20250;-68
2021/03/14 12:25:05;;;;;;;;;;;;;;;;;;4968290;28;20027;-68
2021/03/14 12:27:31;;;;;;;;;;;;;;;;;;4969954;28;20021;-68
2021/03/14 12:29:58;;;;;;;;;;;;;;;;;;4965279;28;19935;-68
2021/03/14 12:32:24;;;;;;;;;;;;;;;;;;4961547;28;20013;-67
2021/03/14 12:34:51;;;;;;;;;;;;;;;;;;4962972;28;19933;-68
2021/03/14 12:37:17;;;;;;;;;;;;;;;;;;4966636;28;19981;-69
2021/03/14 12:39:44;;;;;;;;;;;;;;;;;;4966737;28;20469;-69
2021/03/14 12:42:10;;;;;;;;;;;;;;;;;;4967062;28;19926;-68
2021/03/14 12:44:37;;;;;;;;;;;;;;;;;;4963648;28;20455;-69
2021/03/14 12:47:03;;;;;;;;;;;;;;;;;;4962602;28;20029;-66
2021/03/14 12:49:30;;;;;;;;;;;;;;;;;;4960522;28;19926;-67
2021/03/14 12:51:57;;;;;;;;;;;;;;;;;;4960880;28;19933;-67
2021/03/14 12:54:23;;;;;;;;;;;;;;;;;;4963495;28;20064;-69
2021/03/14 12:56:50;;;;;;;;;;;;;;;;;;4963904;28;19937;-67
2021/03/14 12:59:16;;;;;;;;;;;;;;;;;;4963482;28;19937;-68
2021/03/14 13:01:42;;;;;;;;;;;;;;;;;;4965812;28;20017;-68
2021/03/14 13:04:10;;;;;;;;;;;;;;;;;;4966458;28;20466;-68
2021/03/14 13:06:36;;;;;;;;;;;;;;;;;;4969020;28;20021;-67
2021/03/14 13:09:03;;;;;;;;;;;;;;;;;;4969796;28;20613;-68
2021/03/14 13:11:29;;;;;;;;;;;;;;;;;;4965650;28;20398;-68
2021/03/14 13:13:56;;;;;;;;;;;;;;;;;;4970019;28;20179;-68
2021/03/14 13:16:22;;;;;;;;;;;;;;;;;;4967663;28;19926;-68
2021/03/14 13:18:49;;;;;;;;;;;;;;;;;;4962875;28;20362;-67
2021/03/14 13:21:15;;;;;;;;;;;;;;;;;;4969439;28;19926;-67
2021/03/14 13:23:42;;;;;;;;;;;;;;;;;;4970032;28;19926;-67
2021/03/14 13:26:08;;;;;;;;;;;;;;;;;;4967379;28;20391;-68
2021/03/14 13:28:35;;;;;;;;;;;;;;;;;;4968703;28;20044;-67
2021/03/14 13:31:02;;;;;;;;;;;;;;;;;;4968303;28;19965;-70
2021/03/14 13:33:28;;;;;;;;;;;;;;;;;;4969000;28;20024;-68
2021/03/14 13:35:55;;;;;;;;;;;;;;;;;;4968849;28;20356;-67
2021/03/14 13:38:21;;;;;;;;;;;;;;;;;;4970088;28;19984;-68
2021/03/14 13:40:49;;;;;;;;;;;;;;;;;;4969047;28;19926;-68
2021/03/14 13:43:16;;;;;;;;;;;;;;;;;;4965416;28;19926;-67
2021/03/14 13:45:42;;;;;;;;;;;;;;;;;;4964122;28;19926;-67
2021/03/14 13:48:09;;;;;;;;;;;;;;;;;;4965948;28;19930;-68
2021/03/14 13:50:35;;;;;;;;;;;;;;;;;;4967035;28;19926;-67
2021/03/14 13:53:02;;;;;;;;;;;;;;;;;;4969171;28;20017;-67
2021/03/14 13:55:28;;;;;;;;;;;;;;;;;;4965183;28;20005;-67
2021/03/14 13:57:55;;;;;;;;;;;;;;;;;;4964745;28;20338;-67
2021/03/14 14:00:22;;;;;;;;;;;;;;;;;;4967740;28;20024;-67
2021/03/14 14:02:49;;;;;;;;;;;;;;;;;;4967572;28;20016;-67
2021/03/14 14:05:15;;;;;;;;;;;;;;;;;;4969329;28;19973;-67
2021/03/14 14:07:42;;;;;;;;;;;;;;;;;;4963005;28;19937;-69
2021/03/14 14:10:10;;;;;;;;;;;;;;;;;;4965744;28;19926;-67
2021/03/14 14:12:37;;;;;;;;;;;;;;;;;;4969572;28;21033;-68
2021/03/14 14:15:03;;;;;;;;;;;;;;;;;;4966430;28;20037;-69
2021/03/14 14:17:30;;;;;;;;;;;;;;;;;;4961138;28;19926;-67
2021/03/14 14:19:56;;;;;;;;;;;;;;;;;;4969233;28;19926;-67
2021/03/14 14:22:23;;;;;;;;;;;;;;;;;;4964680;28;19938;-67
2021/03/14 14:24:49;;;;;;;;;;;;;;;;;;4967223;28;19977;-66
2021/03/14 14:27:16;;;;;;;;;;;;;;;;;;4965393;28;19926;-67
2021/03/14 14:29:42;;;;;;;;;;;;;;;;;;4963832;28;19925;-68
2021/03/14 14:32:09;;;;;;;;;;;;;;;;;;4967412;28;19996;-67
2021/03/14 14:34:35;;;;;;;;;;;;;;;;;;4967244;28;19926;-69
2021/03/14 14:37:02;;;;;;;;;;;;;;;;;;4966365;28;20009;-69
2021/03/14 14:39:28;;;;;;;;;;;;;;;;;;4965155;28;19973;-67
2021/03/14 14:41:55;;;;;;;;;;;;;;;;;;4964852;28;19927;-68
2021/03/14 14:44:22;;;;;;;;;;;;;;;;;;4969380;28;19936;-65
2021/03/14 14:46:48;;;;;;;;;;;;;;;;;;4967185;28;19965;-66
2021/03/14 14:49:15;;;;;;;;;;;;;;;;;;4968252;28;19965;-68
2021/03/14 14:51:41;;;;;;;;;;;;;;;;;;4964972;28;19926;-68
2021/03/14 14:54:08;;;;;;;;;;;;;;;;;;4968681;28;20305;-67
2021/03/14 14:56:34;;;;;;;;;;;;;;;;;;4967199;28;20439;-67
2021/03/14 14:59:01;;;;;;;;;;;;;;;;;;4962742;28;19990;-68
2021/03/14 15:01:27;;;;;;;;;;;;;;;;;;4971020;28;20399;-66
2021/03/14 15:03:54;;;;;;;;;;;;;;;;;;4971077;28;20006;-67
2021/03/14 15:06:20;;;;;;;;;;;;;;;;;;4963459;28;19966;-68
2021/03/14 15:08:47;;;;;;;;;;;;;;;;;;4966507;28;19977;-68
2021/03/14 15:11:13;;;;;;;;;;;;;;;;;;4965060;28;19930;-67
2021/03/14 15:13:43;;;;;;;;;;;;;;;;;;4969038;28;19926;-67
2021/03/14 15:16:09;;;;;;;;;;;;;;;;;;4971769;28;19969;-67
2021/03/14 15:18:37;;;;;;;;;;;;;;;;;;4966214;28;20037;-67
2021/03/14 15:21:04;;;;;;;;;;;;;;;;;;4967332;28;20004;-67
2021/03/14 15:23:30;;;;;;;;;;;;;;;;;;4963898;28;20050;-68
2021/03/14 15:25:57;;;;;;;;;;;;;;;;;;4964270;28;19977;-66
2021/03/14 15:28:23;;;;;;;;;;;;;;;;;;4963150;28;19937;-67
2021/03/14 15:30:50;;;;;;;;;;;;;;;;;;4964277;28;20005;-68
2021/03/14 15:33:16;;;;;;;;;;;;;;;;;;4968290;28;20032;-68
2021/03/14 15:35:43;;;;;;;;;;;;;;;;;;4964958;28;19930;-69
2021/03/14 15:38:09;;;;;;;;;;;;;;;;;;4963233;28;19927;-69
2021/03/14 15:40:36;;;;;;;;;;;;;;;;;;4963283;28;19973;-69
2021/03/14 15:43:02;;;;;;;;;;;;;;;;;;4968825;28;19933;-68
2021/03/14 15:45:29;;;;;;;;;;;;;;;;;;4965257;28;19933;-68
2021/03/14 15:47:55;;;;;;;;;;;;;;;;;;4975634;23;19930;-68
2021/03/14 15:50:22;;;;;;;;;;;;;;;;;;4953722;28;19937;-68
2021/03/14 15:52:49;;;;;;;;;;;;;;;;;;4953582;28;19927;-68
2021/03/14 15:55:15;;;;;;;;;;;;;;;;;;4959635;29;19957;-68
2021/03/14 15:57:42;;;;;;;;;;;;;;;;;;4963174;28;19938;-69
2021/03/14 16:00:08;;;;;;;;;;;;;;;;;;4956143;28;19938;-69
2021/03/14 16:02:35;;;;;;;;;;;;;;;;;;4957387;28;20211;-69
2021/03/14 16:05:01;;;;;;;;;;;;;;;;;;4957648;28;19993;-68
2021/03/14 16:07:28;;;;;;;;;;;;;;;;;;4956548;28;20183;-68
2021/03/14 16:09:54;;;;;;;;;;;;;;;;;;4957079;28;19969;-69
2021/03/14 16:12:21;;;;;;;;;;;;;;;;;;4953683;28;19931;-68
2021/03/14 16:14:47;;;;;;;;;;;;;;;;;;4970187;29;19926;-68
2021/03/14 16:17:14;;;;;;;;;;;;;;;;;;4966471;28;19946;-68
2021/03/14 16:19:40;;;;;;;;;;;;;;;;;;4963198;29;19930;-68
2021/03/14 16:22:08;;;;;;;;;;;;;;;;;;4960364;28;19927;-68
2021/03/14 16:24:34;;;;;;;;;;;;;;;;;;4966157;29;20029;-69
2021/03/14 16:27:01;;;;;;;;;;;;;;;;;;4961928;28;19927;-67
2021/03/14 16:29:27;;;;;;;;;;;;;;;;;;4959313;28;19985;-70
2021/03/14 16:31:54;;;;;;;;;;;;;;;;;;4965812;28;19969;-68
2021/03/14 16:34:21;;;;;;;;;;;;;;;;;;4954846;28;19973;-68
2021/03/14 16:36:47;;;;;;;;;;;;;;;;;;4962189;29;19958;-68
2021/03/14 16:39:14;;;;;;;;;;;;;;;;;;4960861;28;19927;-68
2021/03/14 16:41:40;;;;;;;;;;;;;;;;;;4956765;29;19933;-68